Air Resources Laboratory banner image
Air Resources Laboratory web site National Oceanic and Atmospheric Administration (NOAA)

ny metar


KSWF 190545Z 00000KT 10SM SKC M03/M04 A3049=